createdAt,value
2023-05-18T00:03:40.572Z,102979.63
2023-05-18T00:14:03.344Z,102985.66
2023-05-18T00:24:24.995Z,102994.28
2023-05-18T00:34:46.551Z,102997.69
2023-05-18T00:45:08.155Z,102993.34
2023-05-18T00:55:29.830Z,102997.66
2023-05-18T01:05:55.658Z,103001.09
2023-05-18T01:16:21.757Z,103000.25
2023-05-18T01:26:45.316Z,103001.94
2023-05-18T01:37:06.728Z,103000.19
2023-05-18T01:47:29.120Z,103002.78
2023-05-18T01:57:52.687Z,103004.47
2023-05-18T02:08:14.120Z,102997.53
2023-05-18T02:18:36.420Z,103007.88
2023-05-18T02:28:57.949Z,103009.59
2023-05-18T02:39:19.355Z,103006.97
2023-05-18T02:49:41.108Z,103011.22
2023-05-18T03:00:02.506Z,103000.84
2023-05-18T03:10:23.939Z,103015.50
2023-05-18T03:20:45.566Z,103016.31
2023-05-18T03:31:07.032Z,103012.91
2023-05-18T03:41:29.859Z,103017.19
2023-05-18T03:51:51.253Z,103029.25
2023-05-18T04:02:13.154Z,103023.25
2023-05-18T04:12:34.599Z,103029.22
2023-05-18T04:22:57.437Z,103045.66
2023-05-18T04:33:20.476Z,103047.41
2023-05-18T04:43:42.569Z,103066.41
2023-05-18T04:54:04.018Z,103064.69
2023-05-18T05:04:25.463Z,103076.84
2023-05-18T05:14:46.865Z,103078.63
2023-05-18T05:25:08.465Z,103079.56
2023-05-18T05:35:32.558Z,103080.47
2023-05-18T05:45:55.026Z,103076.22
2023-05-18T05:56:16.413Z,103094.34
2023-05-18T06:06:39.079Z,103087.50
2023-05-18T06:17:00.872Z,103097.03
2023-05-18T06:27:23.225Z,103103.94
2023-05-18T06:37:46.812Z,103112.69
2023-05-18T06:48:08.584Z,103124.81
2023-05-18T06:58:30.119Z,103128.38
2023-05-18T07:08:51.517Z,103118.84
2023-05-18T07:19:14.018Z,103122.38
2023-05-18T07:29:35.578Z,103114.66
2023-05-18T07:39:57.015Z,103119.06
2023-05-18T07:50:18.482Z,103121.69
2023-05-18T08:00:39.961Z,103114.84
2023-05-18T08:11:01.398Z,103123.47
2023-05-18T08:21:22.874Z,103129.56
2023-05-18T08:31:44.982Z,103127.84
2023-05-18T08:42:13.019Z,103123.53
2023-05-18T08:52:35.982Z,103129.63
2023-05-18T09:02:57.540Z,103129.59
2023-05-18T09:13:22.578Z,103119.22
2023-05-18T09:23:44.310Z,103114.03
2023-05-18T09:34:06.555Z,103109.72
2023-05-18T09:44:36.467Z,103101.06
2023-05-18T09:54:59.554Z,103096.72
2023-05-18T10:05:28.048Z,103093.25
2023-05-18T10:15:51.129Z,103090.53
2023-05-18T10:26:13.031Z,103083.44
2023-05-18T10:36:35.977Z,103077.25
2023-05-18T10:46:57.696Z,103076.06
2023-05-18T10:57:20.787Z,103073.28
2023-05-18T11:07:45.074Z,103052.81
2023-05-18T11:18:12.902Z,103051.44
2023-05-18T11:28:42.378Z,103045.00
2023-05-18T11:39:04.947Z,103038.72
2023-05-18T11:49:27.211Z,103028.34
2023-05-18T11:59:49.064Z,103029.03
2023-05-18T12:10:11.801Z,103017.81
2023-05-18T12:20:35.525Z,102999.09
2023-05-18T12:30:57.038Z,102999.59
2023-05-18T12:41:22.621Z,102999.69
2023-05-18T12:51:44.060Z,102991.94
2023-05-18T13:02:05.557Z,102989.41
2023-05-18T13:12:38.113Z,102981.63
2023-05-18T13:23:04.013Z,102961.44
2023-05-18T13:33:25.440Z,102945.81
2023-05-18T13:43:46.862Z,102946.75
2023-05-18T13:54:08.391Z,102943.91
2023-05-18T14:04:29.792Z,102937.78
2023-05-18T14:14:51.327Z,102926.28
2023-05-18T14:25:12.758Z,102925.13
2023-05-18T14:35:34.581Z,102920.91
2023-05-18T14:46:07.262Z,102931.47
2023-05-18T14:56:29.950Z,102920.84
2023-05-18T15:06:51.576Z,102903.66
2023-05-18T15:17:14.918Z,102899.16
2023-05-18T15:27:37.000Z,102896.28
2023-05-18T15:37:58.397Z,102897.16
2023-05-18T15:48:19.945Z,102891.81
2023-05-18T15:58:41.350Z,102877.84
2023-05-18T16:09:02.775Z,102885.97
2023-05-18T16:19:24.305Z,102875.00
2023-05-18T16:29:46.152Z,102867.28
2023-05-18T16:40:08.386Z,102857.06
2023-05-18T16:50:30.446Z,102866.34
2023-05-18T17:00:53.244Z,102872.88
2023-05-18T17:11:14.655Z,102871.31
2023-05-18T17:21:36.186Z,102875.91
2023-05-18T17:31:57.777Z,102875.47
2023-05-18T17:42:19.524Z,102878.91
2023-05-18T17:52:40.970Z,102877.81
2023-05-18T18:03:02.615Z,102871.22
2023-05-18T18:13:24.445Z,102870.84
2023-05-18T18:23:45.904Z,102878.16
2023-05-18T18:34:07.349Z,102893.19
2023-05-18T18:44:28.780Z,102886.44
2023-05-18T18:54:50.208Z,102887.47
2023-05-18T19:05:11.792Z,102893.81
2023-05-18T19:15:34.223Z,102903.56
2023-05-18T19:25:56.306Z,102920.19
2023-05-18T19:36:17.846Z,102930.72
2023-05-18T19:46:39.380Z,102943.00
2023-05-18T19:57:00.866Z,102958.66
2023-05-18T20:07:22.584Z,102964.81
2023-05-18T20:17:44.283Z,102962.25
2023-05-18T20:28:08.843Z,102968.41
2023-05-18T20:38:30.803Z,102980.59
2023-05-18T20:48:52.624Z,102964.97
2023-05-18T20:59:18.320Z,102972.84
2023-05-18T21:09:39.714Z,102965.06
2023-05-18T21:20:01.540Z,102965.09
2023-05-18T21:30:23.043Z,102973.78
2023-05-18T21:40:44.507Z,102975.53
2023-05-18T21:51:05.972Z,102973.81
2023-05-18T22:01:27.499Z,102978.16
2023-05-18T22:11:49.004Z,102976.44
2023-05-18T22:22:16.488Z,102977.31
2023-05-18T22:32:46.192Z,102968.66
2023-05-18T22:43:07.624Z,102966.13
2023-05-18T22:53:29.081Z,102963.53
2023-05-18T23:03:51.299Z,102973.91
2023-05-18T23:14:12.796Z,102973.94
2023-05-18T23:24:34.237Z,102970.47
2023-05-18T23:34:57.766Z,102973.94
2023-05-18T23:45:19.388Z,102970.47
2023-05-18T23:55:41.677Z,102963.50
